createdAt,value
2024-04-30T00:00:29.035Z,57.45
2024-04-30T00:03:34.091Z,59.23
2024-04-30T00:06:40.672Z,58.97
2024-04-30T00:09:46.113Z,58.16
2024-04-30T00:12:48.509Z,58.37
2024-04-30T00:15:53.582Z,58.75
2024-04-30T00:18:56.031Z,59.02
2024-04-30T00:22:03.783Z,60.42
2024-04-30T00:25:06.517Z,60.33
2024-04-30T00:28:11.542Z,60.75
2024-04-30T00:31:16.859Z,59.29
2024-04-30T00:34:19.305Z,59.30
2024-04-30T00:37:27.068Z,59.43
2024-04-30T00:40:29.559Z,59.48
2024-04-30T00:43:34.782Z,60.26
2024-04-30T00:46:37.789Z,60.63
2024-04-30T00:49:43.755Z,60.93
2024-04-30T00:52:53.729Z,61.48
2024-04-30T00:55:56.244Z,60.79
2024-04-30T00:59:01.565Z,60.63
2024-04-30T01:02:04.989Z,60.41
2024-04-30T01:05:10.061Z,61.40
2024-04-30T01:08:17.983Z,61.43
2024-04-30T01:11:21.043Z,62.33
2024-04-30T01:14:26.251Z,62.62
2024-04-30T01:17:28.668Z,63.10
2024-04-30T01:20:34.076Z,61.78
2024-04-30T01:23:39.109Z,60.05
2024-04-30T01:26:44.172Z,59.66
2024-04-30T01:29:46.559Z,58.99
2024-04-30T01:32:52.232Z,59.36
2024-04-30T01:35:54.705Z,60.18
2024-04-30T01:39:02.464Z,60.06
2024-04-30T01:42:06.025Z,60.34
2024-04-30T01:45:11.346Z,60.02
2024-04-30T01:48:13.900Z,60.01
2024-04-30T01:51:18.958Z,60.29
2024-04-30T01:54:23.977Z,60.10
2024-04-30T01:57:29.104Z,60.55
2024-04-30T02:00:34.237Z,60.36
2024-04-30T02:03:36.723Z,62.51
2024-04-30T02:06:41.771Z,61.80
2024-04-30T02:09:49.439Z,63.10
2024-04-30T02:12:52.042Z,62.75
2024-04-30T02:15:57.170Z,63.77
2024-04-30T02:19:02.214Z,64.81
2024-04-30T02:22:05.161Z,64.90
2024-04-30T02:25:12.935Z,66.06
2024-04-30T02:28:18.026Z,66.09
2024-04-30T02:31:39.202Z,66.04
2024-04-30T02:34:44.395Z,65.58
2024-04-30T02:37:49.353Z,66.46
2024-04-30T02:40:57.115Z,67.04
2024-04-30T02:44:02.181Z,66.49
2024-04-30T02:47:05.021Z,67.20
2024-04-30T02:50:10.379Z,66.62
2024-04-30T02:53:12.945Z,66.67
2024-04-30T02:56:21.498Z,67.27
2024-04-30T02:59:23.991Z,67.64
2024-04-30T03:02:32.119Z,67.38
2024-04-30T03:05:37.413Z,67.99
2024-04-30T03:08:40.529Z,69.40
2024-04-30T03:11:48.984Z,69.80
2024-04-30T03:14:51.838Z,70.13
2024-04-30T03:17:57.367Z,68.21
2024-04-30T03:21:00.252Z,68.45
2024-04-30T03:24:05.676Z,68.26
2024-04-30T03:27:10.847Z,69.97
2024-04-30T03:30:16.043Z,69.01
2024-04-30T03:33:18.539Z,70.29
2024-04-30T03:36:23.719Z,71.38
2024-04-30T03:39:28.635Z,71.71
2024-04-30T03:42:37.324Z,72.01
2024-04-30T03:45:42.336Z,72.56
2024-04-30T03:48:47.412Z,72.05
2024-04-30T03:51:50.705Z,72.35
2024-04-30T03:54:55.652Z,71.90
2024-04-30T03:58:03.300Z,72.23
2024-04-30T04:01:06.234Z,71.80
2024-04-30T04:04:11.420Z,70.37
2024-04-30T04:07:15.637Z,69.67
2024-04-30T04:10:20.765Z,70.18
2024-04-30T04:13:44.383Z,70.25
2024-04-30T04:16:49.756Z,70.70
2024-04-30T04:19:54.927Z,69.92
2024-04-30T04:23:00.067Z,69.92
2024-04-30T04:26:05.092Z,69.35
2024-04-30T04:29:10.017Z,69.09
2024-04-30T04:32:16.067Z,68.94
2024-04-30T04:35:19.092Z,69.33
2024-04-30T04:38:25.209Z,67.55
2024-04-30T04:41:27.587Z,68.46
2024-04-30T04:44:35.981Z,68.04
2024-04-30T04:47:41.092Z,68.27
2024-04-30T04:50:43.732Z,66.96
2024-04-30T04:53:48.946Z,67.08
2024-04-30T04:56:54.119Z,66.48
2024-04-30T04:59:59.267Z,66.39
2024-04-30T05:03:04.523Z,66.55
2024-04-30T05:06:07.185Z,65.32
2024-04-30T05:09:12.331Z,65.49
2024-04-30T05:12:14.820Z,65.71
2024-04-30T05:15:22.719Z,64.33
2024-04-30T05:18:28.422Z,64.86
2024-04-30T05:21:31.837Z,64.96
2024-04-30T05:24:37.254Z,63.31
2024-04-30T05:27:39.866Z,63.93
2024-04-30T05:30:47.825Z,63.26
2024-04-30T05:33:53.231Z,63.14
2024-04-30T05:36:56.130Z,63.72
2024-04-30T05:40:01.580Z,62.32
2024-04-30T05:43:08.641Z,61.80
2024-04-30T05:46:16.599Z,61.49
2024-04-30T05:49:21.788Z,61.52
2024-04-30T05:52:30.837Z,60.69
2024-04-30T05:55:36.184Z,61.24
2024-04-30T05:58:38.874Z,59.98
2024-04-30T06:01:46.680Z,57.94
2024-04-30T06:04:49.227Z,58.56
2024-04-30T06:07:54.479Z,58.14
2024-04-30T06:11:02.406Z,58.39
2024-04-30T06:14:08.087Z,57.28
2024-04-30T06:17:20.291Z,57.27
2024-04-30T06:20:23.630Z,54.70
2024-04-30T06:23:31.907Z,54.15
2024-04-30T06:26:40.616Z,53.43
2024-04-30T06:29:52.282Z,51.58
2024-04-30T06:33:00.719Z,50.43
2024-04-30T06:36:09.953Z,51.81
2024-04-30T06:39:16.343Z,51.40
2024-04-30T06:42:18.979Z,53.81
2024-04-30T06:45:25.004Z,55.08
2024-04-30T06:48:34.455Z,53.12
2024-04-30T06:51:40.965Z,50.43
2024-04-30T06:54:43.522Z,47.42
2024-04-30T06:57:49.559Z,45.99
2024-04-30T07:00:54.921Z,43.28
2024-04-30T07:04:00.370Z,43.33
2024-04-30T07:07:05.752Z,42.89
2024-04-30T07:10:08.685Z,41.92
2024-04-30T07:13:13.954Z,41.67
2024-04-30T07:16:19.181Z,42.51
2024-04-30T07:19:24.411Z,41.48
2024-04-30T07:22:29.892Z,42.21
2024-04-30T07:25:34.226Z,40.33
2024-04-30T07:28:39.568Z,38.82
2024-04-30T07:31:42.280Z,37.91
2024-04-30T07:34:50.337Z,36.44
2024-04-30T07:37:52.880Z,36.73
2024-04-30T07:40:58.598Z,37.46
2024-04-30T07:44:01.445Z,36.56
2024-04-30T07:47:09.349Z,36.05
2024-04-30T07:50:41.918Z,36.17
2024-04-30T07:53:47.503Z,36.75
2024-04-30T07:56:52.977Z,34.34
2024-04-30T07:59:58.763Z,35.14
2024-04-30T08:03:04.516Z,34.61
2024-04-30T08:06:20.460Z,33.48
2024-04-30T08:09:24.038Z,33.46
2024-04-30T08:12:30.302Z,32.51
2024-04-30T08:15:32.964Z,32.45
2024-04-30T08:18:40.448Z,30.96
2024-04-30T08:21:52.887Z,32.24
2024-04-30T08:24:58.502Z,31.61
2024-04-30T08:28:01.188Z,31.52
2024-04-30T08:31:06.656Z,31.58
2024-04-30T08:34:09.830Z,31.15
2024-04-30T08:37:17.665Z,30.15
2024-04-30T08:40:23.755Z,30.27
2024-04-30T08:43:27.758Z,28.84
2024-04-30T08:46:35.025Z,29.76
2024-04-30T08:49:48.630Z,29.98
2024-04-30T08:53:00.707Z,29.26
2024-04-30T08:56:12.556Z,29.03
2024-04-30T08:59:15.318Z,29.18
2024-04-30T09:02:20.995Z,29.05
2024-04-30T09:05:26.570Z,28.60
2024-04-30T09:08:32.031Z,28.43
2024-04-30T09:11:37.447Z,28.17
2024-04-30T09:14:48.821Z,27.42
2024-04-30T09:17:54.132Z,27.65
2024-04-30T09:20:59.271Z,26.99
2024-04-30T09:24:13.911Z,28.71
2024-04-30T09:27:16.902Z,27.04
2024-04-30T09:30:24.211Z,26.88
2024-04-30T09:33:30.780Z,27.46
2024-04-30T09:36:36.494Z,26.43
2024-04-30T09:39:46.977Z,26.62
2024-04-30T09:42:50.416Z,26.98
2024-04-30T09:45:56.418Z,25.92
2024-04-30T09:49:05.019Z,26.53
2024-04-30T09:52:13.618Z,27.52
2024-04-30T09:55:21.734Z,26.67
2024-04-30T09:58:24.407Z,25.59
2024-04-30T10:01:32.960Z,25.63
2024-04-30T10:04:36.327Z,26.66
2024-04-30T10:07:42.169Z,25.86
2024-04-30T10:10:51.464Z,24.68
2024-04-30T10:13:57.616Z,25.08
2024-04-30T10:17:01.076Z,25.75
2024-04-30T10:20:06.703Z,24.41
2024-04-30T10:23:11.175Z,25.09
2024-04-30T10:26:19.257Z,25.93
2024-04-30T10:29:24.489Z,24.67
2024-04-30T10:32:26.946Z,26.24
2024-04-30T10:35:42.920Z,24.59
2024-04-30T10:38:49.420Z,24.34
2024-04-30T10:41:57.514Z,24.40
2024-04-30T10:45:02.694Z,23.06
2024-04-30T10:48:15.362Z,23.45
2024-04-30T10:51:18.587Z,22.19
2024-04-30T10:54:23.901Z,23.28
2024-04-30T10:57:38.407Z,22.68
2024-04-30T11:00:44.450Z,24.74
2024-04-30T11:03:51.719Z,21.77
2024-04-30T11:06:57.020Z,23.51
2024-04-30T11:09:59.754Z,22.16
2024-04-30T11:13:11.470Z,22.25
2024-04-30T11:16:17.059Z,23.57
2024-04-30T11:19:20.867Z,22.59
2024-04-30T11:22:26.342Z,22.84
2024-04-30T11:25:32.068Z,23.36
2024-04-30T11:28:40.137Z,22.22
2024-04-30T11:31:45.625Z,21.55
2024-04-30T11:34:53.783Z,21.54
2024-04-30T11:37:56.429Z,22.29
2024-04-30T11:41:01.759Z,20.99
2024-04-30T11:44:06.944Z,22.20
2024-04-30T11:47:12.127Z,21.31
2024-04-30T11:50:17.190Z,21.23
2024-04-30T11:53:22.632Z,21.42
2024-04-30T11:56:31.812Z,22.24
2024-04-30T11:59:41.937Z,21.11
2024-04-30T12:02:47.261Z,18.63
2024-04-30T12:05:53.683Z,20.18
2024-04-30T12:09:00.554Z,20.33
2024-04-30T12:12:09.186Z,19.51
2024-04-30T12:15:17.534Z,21.28
2024-04-30T12:18:22.699Z,21.07
2024-04-30T12:21:28.091Z,20.59
2024-04-30T12:24:36.197Z,21.24
2024-04-30T12:27:41.253Z,21.85
2024-04-30T12:30:49.088Z,20.84
2024-04-30T12:33:51.640Z,22.27
2024-04-30T12:36:57.032Z,21.41
2024-04-30T12:40:05.042Z,21.72
2024-04-30T12:43:12.271Z,21.55
2024-04-30T12:46:20.554Z,21.55
2024-04-30T12:49:25.865Z,20.13
2024-04-30T12:52:31.021Z,20.19
2024-04-30T12:55:34.998Z,21.55
2024-04-30T12:58:40.805Z,18.87
2024-04-30T13:01:48.628Z,19.72
2024-04-30T13:04:53.873Z,18.67
2024-04-30T13:07:56.436Z,19.40
2024-04-30T13:11:01.693Z,18.85
2024-04-30T13:14:07.013Z,19.43
2024-04-30T13:17:12.067Z,19.26
2024-04-30T13:20:17.336Z,19.57
2024-04-30T13:23:19.767Z,19.36
2024-04-30T13:26:24.886Z,19.06
2024-04-30T13:29:29.974Z,19.35
2024-04-30T13:32:35.291Z,18.43
2024-04-30T13:35:41.240Z,18.69
2024-04-30T13:38:46.580Z,19.24
2024-04-30T13:41:52.410Z,17.30
2024-04-30T13:44:57.898Z,19.08
2024-04-30T13:48:11.019Z,17.89
2024-04-30T13:51:17.242Z,18.33
2024-04-30T13:54:22.364Z,18.33
2024-04-30T13:57:24.943Z,18.99
2024-04-30T14:00:30.355Z,18.30
2024-04-30T14:03:35.571Z,17.54
2024-04-30T14:06:42.497Z,19.66
2024-04-30T14:09:45.024Z,19.01
2024-04-30T14:12:50.504Z,18.58
2024-04-30T14:15:55.831Z,18.83
2024-04-30T14:19:03.847Z,18.69
2024-04-30T14:22:29.823Z,18.99
2024-04-30T14:25:32.807Z,21.31
2024-04-30T14:28:38.371Z,19.29
2024-04-30T14:31:44.641Z,22.18
2024-04-30T14:34:56.408Z,22.99
2024-04-30T14:37:59.457Z,23.27
2024-04-30T14:41:05.011Z,25.52
2024-04-30T14:44:13.766Z,20.82
2024-04-30T14:47:43.308Z,19.94
2024-04-30T14:51:07.868Z,22.44
2024-04-30T14:54:15.338Z,21.88
2024-04-30T14:57:42.287Z,24.76
2024-04-30T15:00:50.883Z,22.44
2024-04-30T15:03:54.175Z,22.14
2024-04-30T15:07:24.040Z,22.89
2024-04-30T15:10:29.944Z,22.93
2024-04-30T15:13:32.781Z,23.68
2024-04-30T15:16:38.073Z,24.89
2024-04-30T15:19:45.864Z,23.32
2024-04-30T15:22:51.263Z,24.93
2024-04-30T15:25:58.275Z,24.93
2024-04-30T15:29:03.370Z,27.35
2024-04-30T15:32:12.301Z,25.38
2024-04-30T15:35:28.493Z,24.92
2024-04-30T15:38:48.672Z,24.84
2024-04-30T15:41:55.435Z,25.02
2024-04-30T15:44:57.932Z,24.24
2024-04-30T15:48:04.189Z,24.89
2024-04-30T15:51:08.551Z,25.19
2024-04-30T15:54:17.955Z,25.10
2024-04-30T15:57:24.603Z,27.58
2024-04-30T16:00:29.847Z,25.63
2024-04-30T16:03:32.426Z,26.33
2024-04-30T16:06:37.573Z,26.24
2024-04-30T16:09:42.566Z,25.23
2024-04-30T16:12:47.928Z,25.54
2024-04-30T16:16:00.248Z,26.77
2024-04-30T16:19:10.325Z,26.33
2024-04-30T16:22:15.595Z,26.19
2024-04-30T16:25:23.248Z,27.47
2024-04-30T16:28:28.428Z,27.17
2024-04-30T16:31:34.851Z,26.81
2024-04-30T16:34:42.742Z,27.76
2024-04-30T16:37:45.224Z,27.79
2024-04-30T16:40:53.245Z,26.89
2024-04-30T16:43:58.168Z,27.68
2024-04-30T16:47:00.494Z,27.54
2024-04-30T16:50:10.067Z,26.40
2024-04-30T16:53:15.094Z,28.10
2024-04-30T16:56:23.419Z,28.30
2024-04-30T16:59:25.738Z,26.93
2024-04-30T17:02:30.783Z,27.67
2024-04-30T17:05:35.929Z,27.86
2024-04-30T17:08:40.997Z,29.13
2024-04-30T17:11:47.989Z,29.87
2024-04-30T17:14:53.615Z,28.75
2024-04-30T17:17:59.768Z,29.30
2024-04-30T17:21:03.408Z,29.78
2024-04-30T17:24:08.652Z,29.75
2024-04-30T17:27:16.223Z,30.18
2024-04-30T17:30:18.749Z,32.94
2024-04-30T17:33:24.086Z,30.55
2024-04-30T17:36:28.000Z,31.93
2024-04-30T17:39:33.490Z,30.82
2024-04-30T17:42:43.159Z,30.44
2024-04-30T17:45:48.100Z,31.57
2024-04-30T17:48:50.887Z,31.82
2024-04-30T17:51:55.897Z,33.75
2024-04-30T17:54:58.386Z,33.59
2024-04-30T17:58:06.067Z,33.58
2024-04-30T18:01:10.761Z,33.27
2024-04-30T18:04:16.221Z,31.91
2024-04-30T18:07:21.372Z,32.41
2024-04-30T18:10:36.095Z,33.24
2024-04-30T18:13:48.955Z,33.97
2024-04-30T18:16:54.121Z,33.58
2024-04-30T18:19:59.151Z,34.22
2024-04-30T18:23:01.445Z,34.47
2024-04-30T18:26:06.774Z,34.28
2024-04-30T18:29:11.766Z,34.95
2024-04-30T18:32:18.375Z,35.59
2024-04-30T18:35:20.783Z,35.74
2024-04-30T18:38:25.902Z,35.81
2024-04-30T18:41:31.183Z,36.50
2024-04-30T18:44:39.230Z,36.72
2024-04-30T18:47:44.291Z,39.07
2024-04-30T18:50:49.364Z,37.66
2024-04-30T18:53:51.776Z,37.38
2024-04-30T18:56:56.959Z,38.10
2024-04-30T19:00:02.203Z,38.55
2024-04-30T19:03:08.116Z,38.59
2024-04-30T19:06:17.934Z,38.46
2024-04-30T19:09:20.595Z,37.86
2024-04-30T19:12:25.924Z,37.68
2024-04-30T19:15:33.931Z,37.52
2024-04-30T19:18:40.788Z,37.27
2024-04-30T19:21:49.659Z,37.13
2024-04-30T19:24:55.215Z,36.85
2024-04-30T19:28:01.329Z,36.61
2024-04-30T19:31:09.265Z,36.72
2024-04-30T19:34:16.611Z,37.08
2024-04-30T19:37:21.980Z,37.52
2024-04-30T19:40:25.836Z,38.30
2024-04-30T19:43:31.032Z,38.27
2024-04-30T19:46:38.944Z,37.77
2024-04-30T19:49:44.349Z,37.79
2024-04-30T19:52:47.219Z,37.01
2024-04-30T19:55:54.121Z,37.32
2024-04-30T19:58:59.774Z,37.46
2024-04-30T20:02:05.483Z,36.04
2024-04-30T20:05:11.726Z,36.64
2024-04-30T20:08:17.291Z,35.87
2024-04-30T20:11:21.033Z,36.48
2024-04-30T20:14:26.551Z,36.44
2024-04-30T20:17:31.725Z,36.27
2024-04-30T20:20:36.823Z,38.92
2024-04-30T20:23:39.809Z,39.40
2024-04-30T20:26:45.707Z,41.59
2024-04-30T20:29:51.067Z,40.87
2024-04-30T20:32:58.694Z,40.60
2024-04-30T20:36:01.172Z,38.72
2024-04-30T20:39:06.540Z,39.99
2024-04-30T20:42:11.632Z,38.66
2024-04-30T20:45:16.611Z,38.00
2024-04-30T20:48:26.253Z,37.47
2024-04-30T20:51:31.428Z,37.45
2024-04-30T20:54:37.663Z,37.48
2024-04-30T20:57:40.016Z,39.92
2024-04-30T21:00:45.220Z,38.38
2024-04-30T21:03:50.975Z,38.90
2024-04-30T21:06:56.238Z,39.39
2024-04-30T21:09:58.986Z,40.40
2024-04-30T21:13:04.469Z,41.71
2024-04-30T21:16:07.248Z,41.96
2024-04-30T21:19:15.255Z,43.14
2024-04-30T21:22:20.213Z,43.38
2024-04-30T21:25:22.506Z,43.08
2024-04-30T21:28:27.721Z,43.87
2024-04-30T21:31:33.083Z,43.66
2024-04-30T21:34:40.712Z,45.12
2024-04-30T21:37:45.676Z,44.43
2024-04-30T21:40:48.038Z,45.67
2024-04-30T21:43:53.463Z,45.91
2024-04-30T21:46:55.892Z,46.45
2024-04-30T21:50:03.525Z,46.47
2024-04-30T21:53:05.906Z,47.38
2024-04-30T21:56:10.969Z,47.80
2024-04-30T21:59:13.299Z,46.82
2024-04-30T22:02:18.347Z,47.91
2024-04-30T22:05:26.144Z,46.16
2024-04-30T22:08:31.269Z,47.65
2024-04-30T22:11:33.564Z,45.16
2024-04-30T22:14:38.519Z,44.91
2024-04-30T22:17:40.904Z,43.27
2024-04-30T22:20:48.520Z,42.43
2024-04-30T22:23:53.536Z,43.38
2024-04-30T22:26:58.507Z,44.84
2024-04-30T22:30:12.886Z,45.81
2024-04-30T22:33:21.898Z,46.19
2024-04-30T22:36:29.630Z,46.77
2024-04-30T22:39:33.176Z,45.05
2024-04-30T22:42:38.638Z,45.30
2024-04-30T22:45:43.806Z,46.87
2024-04-30T22:48:48.951Z,46.49
2024-04-30T22:51:56.731Z,46.39
2024-04-30T22:55:01.867Z,46.82
2024-04-30T22:58:07.223Z,47.06
2024-04-30T23:01:12.632Z,45.03
2024-04-30T23:04:15.205Z,47.64
2024-04-30T23:07:22.841Z,46.56
2024-04-30T23:10:25.348Z,48.12
2024-04-30T23:13:30.369Z,47.22
2024-04-30T23:16:36.827Z,49.63
2024-04-30T23:19:39.075Z,49.21
2024-04-30T23:22:46.776Z,48.88
2024-04-30T23:25:49.032Z,48.25
2024-04-30T23:28:53.981Z,47.93
2024-04-30T23:31:58.994Z,48.90
2024-04-30T23:35:04.226Z,46.52
2024-04-30T23:38:11.938Z,50.55
2024-04-30T23:41:14.241Z,50.05
2024-04-30T23:44:19.234Z,51.41
2024-04-30T23:47:24.341Z,49.62
2024-04-30T23:50:29.792Z,49.46
2024-04-30T23:53:38.284Z,48.15
2024-04-30T23:56:40.682Z,47.88
2024-04-30T23:59:45.669Z,47.57
